Pagrindinis puslapis
METAR-TAF:

METAR-TAF

Oro uostai :

Bankokas-Suvarnabhumi, Tailandas

platuma: 13-40-52N, ilguma: 100-44-50E, Aukštis: 2 m

Dabartinis oras

Ataskaita buvo paskelbta 35 minutes, ne 04:00 UTC
Vėjas 5 kt nuo kintamojo kryptimis
Temperatūra 31°C
Drėgmė 59%
Slėgis 1012 hPa
Matomumas 10 km arba daugiau
Mažai debesys ne aukštis 2000 ft

METAR: VTBS 290400Z VRB05KT 9999 FEW020 31/22 Q1012 NOSIG

Laikas: 11:35 (04:35 UTC)

Prognozė

Ataskaita buvo paskelbta 5 valandos ir 35 minutes, ne 23:00 UTC
Prognozė galioja nuo 29 metu 00 UTC su 01 metu 06 UTC
Vėjas 5 kt iš Pietryčių
Matomumas: 7000 m
Mažai debesys ne aukštis 2500 ft
Tapsmas
nuo 29 metu 02 UTC su 29 metu 04 UTC
Vėjas 10 kt iš Pietų/Pietvakarių
Matomumas 10 km arba daugiau

TAF: VTBS 282300Z 2900/0106 14005KT 7000 FEW025 BECMG 2902/2904 20010KT 9999

Orai ataskaitas ir orų prognozės (METAR, TAF).

turimą stotys yra geltonos ir raudonos taškus žemėlapyje.

Perkelti pele per norėdami pamatyti stoties vardą.

Tada spustelėkite, norėdami matyti oro stebėjimo ir prognozės.

Norėdami pakeisti žemėlapį: spustelėkite ant žalios mygtukų su juodo kryžiaus žemyn,; žalią mygtuką su brūkšneliu, jei norite nutolinti; arba žalių rodyklių gretimoms žemėlapius.


METAR-TAF: